sensor_id;sensor_type;location;lat;lon;timestamp;temperature;humidity
46752;DHT22;32497;48.936;9.270;2022-10-03T00:08:48;11.70;93.50
46752;DHT22;32497;48.936;9.270;2022-10-03T00:13:57;11.70;93.50
46752;DHT22;32497;48.936;9.270;2022-10-03T00:19:06;11.80;93.60
46752;DHT22;32497;48.936;9.270;2022-10-03T00:24:18;11.80;93.60
46752;DHT22;32497;48.936;9.270;2022-10-03T00:29:39;12.00;93.50
46752;DHT22;32497;48.936;9.270;2022-10-03T00:34:53;12.00;93.20
46752;DHT22;32497;48.936;9.270;2022-10-03T00:40:14;11.90;93.30
46752;DHT22;32497;48.936;9.270;2022-10-03T00:51:18;12.00;93.20
46752;DHT22;32497;48.936;9.270;2022-10-03T00:56:36;12.20;93.20
46752;DHT22;32497;48.936;9.270;2022-10-03T01:01:44;11.90;92.90
46752;DHT22;32497;48.936;9.270;2022-10-03T01:06:56;11.90;93.10
46752;DHT22;32497;48.936;9.270;2022-10-03T01:12:16;12.10;93.20
46752;DHT22;32497;48.936;9.270;2022-10-03T01:17:26;12.20;93.20
46752;DHT22;32497;48.936;9.270;2022-10-03T01:22:54;12.20;92.90
46752;DHT22;32497;48.936;9.270;2022-10-03T01:28:12;12.20;92.90
46752;DHT22;32497;48.936;9.270;2022-10-03T01:33:19;12.20;92.80
46752;DHT22;32497;48.936;9.270;2022-10-03T01:38:26;12.20;92.80
46752;DHT22;32497;48.936;9.270;2022-10-03T01:43:37;12.20;92.70
46752;DHT22;32497;48.936;9.270;2022-10-03T01:48:48;12.20;92.90
46752;DHT22;32497;48.936;9.270;2022-10-03T01:54:03;12.20;92.90
46752;DHT22;32497;48.936;9.270;2022-10-03T01:59:15;12.10;92.90
46752;DHT22;32497;48.936;9.270;2022-10-03T02:04:24;12.00;93.10
46752;DHT22;32497;48.936;9.270;2022-10-03T02:09:34;12.00;93.20
46752;DHT22;32497;48.936;9.270;2022-10-03T02:14:47;12.00;93.30
46752;DHT22;32497;48.936;9.270;2022-10-03T02:19:59;12.10;93.40
46752;DHT22;32497;48.936;9.270;2022-10-03T02:25:11;12.00;93.40
46752;DHT22;32497;48.936;9.270;2022-10-03T02:30:21;12.10;93.40
46752;DHT22;32497;48.936;9.270;2022-10-03T02:41:12;11.90;93.30
46752;DHT22;32497;48.936;9.270;2022-10-03T02:46:43;11.90;93.00
46752;DHT22;32497;48.936;9.270;2022-10-03T02:52:05;11.80;93.20
46752;DHT22;32497;48.936;9.270;2022-10-03T03:03:11;11.90;93.30
46752;DHT22;32497;48.936;9.270;2022-10-03T03:08:49;11.90;93.30
46752;DHT22;32497;48.936;9.270;2022-10-03T03:19:46;11.70;93.30
46752;DHT22;32497;48.936;9.270;2022-10-03T03:25:09;11.80;93.30
46752;DHT22;32497;48.936;9.270;2022-10-03T03:30:17;11.60;93.30
46752;DHT22;32497;48.936;9.270;2022-10-03T03:35:28;11.60;93.40
46752;DHT22;32497;48.936;9.270;2022-10-03T03:40:45;11.60;93.40
46752;DHT22;32497;48.936;9.270;2022-10-03T03:46:01;11.70;93.30
46752;DHT22;32497;48.936;9.270;2022-10-03T03:51:15;11.70;93.30
46752;DHT22;32497;48.936;9.270;2022-10-03T03:56:54;11.60;93.20
46752;DHT22;32497;48.936;9.270;2022-10-03T04:02:12;11.60;93.20
46752;DHT22;32497;48.936;9.270;2022-10-03T04:07:32;11.60;93.30
46752;DHT22;32497;48.936;9.270;2022-10-03T04:13:06;11.70;93.40
46752;DHT22;32497;48.936;9.270;2022-10-03T04:18:28;11.60;93.10
46752;DHT22;32497;48.936;9.270;2022-10-03T04:23:50;11.60;93.20
46752;DHT22;32497;48.936;9.270;2022-10-03T04:29:07;11.60;93.20
46752;DHT22;32497;48.936;9.270;2022-10-03T04:34:30;11.60;93.10
46752;DHT22;32497;48.936;9.270;2022-10-03T04:39:41;11.70;93.10
46752;DHT22;32497;48.936;9.270;2022-10-03T04:45:00;11.70;93.20
46752;DHT22;32497;48.936;9.270;2022-10-03T04:50:17;11.70;93.00
46752;DHT22;32497;48.936;9.270;2022-10-03T04:55:26;11.70;93.00
46752;DHT22;32497;48.936;9.270;2022-10-03T05:00:32;11.60;92.90
46752;DHT22;32497;48.936;9.270;2022-10-03T05:05:47;11.60;92.90
46752;DHT22;32497;48.936;9.270;2022-10-03T05:10:56;11.60;92.90
46752;DHT22;32497;48.936;9.270;2022-10-03T05:16:05;11.50;92.90
46752;DHT22;32497;48.936;9.270;2022-10-03T05:21:11;11.50;92.80
46752;DHT22;32497;48.936;9.270;2022-10-03T05:26:22;11.50;92.90
46752;DHT22;32497;48.936;9.270;2022-10-03T05:31:33;11.40;93.00
46752;DHT22;32497;48.936;9.270;2022-10-03T05:36:53;11.40;92.80
46752;DHT22;32497;48.936;9.270;2022-10-03T05:42:10;11.30;93.30
46752;DHT22;32497;48.936;9.270;2022-10-03T05:47:23;11.40;93.30
46752;DHT22;32497;48.936;9.270;2022-10-03T05:52:57;11.40;93.50
46752;DHT22;32497;48.936;9.270;2022-10-03T05:58:31;11.50;93.60
46752;DHT22;32497;48.936;9.270;2022-10-03T06:03:58;11.50;93.50
46752;DHT22;32497;48.936;9.270;2022-10-03T06:09:46;11.30;93.30
46752;DHT22;32497;48.936;9.270;2022-10-03T06:15:12;11.00;93.20
46752;DHT22;32497;48.936;9.270;2022-10-03T06:26:24;11.00;93.60
46752;DHT22;32497;48.936;9.270;2022-10-03T06:37:35;10.90;93.60
46752;DHT22;32497;48.936;9.270;2022-10-03T06:48:38;11.40;93.40
46752;DHT22;32497;48.936;9.270;2022-10-03T06:53:59;11.20;92.70
46752;DHT22;32497;48.936;9.270;2022-10-03T06:59:24;11.20;92.70
46752;DHT22;32497;48.936;9.270;2022-10-03T07:10:24;11.40;93.10
46752;DHT22;32497;48.936;9.270;2022-10-03T07:27:10;11.40;92.00
46752;DHT22;32497;48.936;9.270;2022-10-03T07:32:30;11.60;92.10
46752;DHT22;32497;48.936;9.270;2022-10-03T07:37:58;11.80;92.70
46752;DHT22;32497;48.936;9.270;2022-10-03T07:43:46;12.00;92.00
46752;DHT22;32497;48.936;9.270;2022-10-03T07:49:04;12.10;90.50
46752;DHT22;32497;48.936;9.270;2022-10-03T07:54:38;12.20;90.50
46752;DHT22;32497;48.936;9.270;2022-10-03T08:00:05;12.20;90.10
46752;DHT22;32497;48.936;9.270;2022-10-03T08:05:22;12.20;90.60
46752;DHT22;32497;48.936;9.270;2022-10-03T08:16:17;12.70;89.40
46752;DHT22;32497;48.936;9.270;2022-10-03T08:21:29;12.80;89.20
46752;DHT22;32497;48.936;9.270;2022-10-03T08:26:57;13.10;89.00
46752;DHT22;32497;48.936;9.270;2022-10-03T08:32:35;13.00;87.60
46752;DHT22;32497;48.936;9.270;2022-10-03T08:38:01;12.70;87.00
46752;DHT22;32497;48.936;9.270;2022-10-03T08:43:28;12.90;87.70
46752;DHT22;32497;48.936;9.270;2022-10-03T08:49:01;13.00;86.90
46752;DHT22;32497;48.936;9.270;2022-10-03T09:00:10;13.70;87.10
46752;DHT22;32497;48.936;9.270;2022-10-03T09:16:40;14.20;84.40
46752;DHT22;32497;48.936;9.270;2022-10-03T09:22:19;14.20;84.40
46752;DHT22;32497;48.936;9.270;2022-10-03T09:27:44;14.10;83.40
46752;DHT22;32497;48.936;9.270;2022-10-03T09:33:42;14.10;83.90
46752;DHT22;32497;48.936;9.270;2022-10-03T09:39:02;14.00;84.20
46752;DHT22;32497;48.936;9.270;2022-10-03T09:44:27;14.00;81.10
46752;DHT22;32497;48.936;9.270;2022-10-03T09:55:39;14.20;79.90
46752;DHT22;32497;48.936;9.270;2022-10-03T10:01:13;14.00;81.20
46752;DHT22;32497;48.936;9.270;2022-10-03T10:06:31;13.80;79.20
46752;DHT22;32497;48.936;9.270;2022-10-03T10:11:58;13.70;81.30
46752;DHT22;32497;48.936;9.270;2022-10-03T10:23:10;13.70;83.40
46752;DHT22;32497;48.936;9.270;2022-10-03T10:28:40;14.10;83.30
46752;DHT22;32497;48.936;9.270;2022-10-03T10:34:12;14.20;81.90
46752;DHT22;32497;48.936;9.270;2022-10-03T10:39:47;14.60;82.80
46752;DHT22;32497;48.936;9.270;2022-10-03T10:45:22;14.80;76.50
46752;DHT22;32497;48.936;9.270;2022-10-03T10:56:37;14.80;75.40
46752;DHT22;32497;48.936;9.270;2022-10-03T11:13:51;14.40;80.50
46752;DHT22;32497;48.936;9.270;2022-10-03T11:19:22;14.70;74.80
46752;DHT22;32497;48.936;9.270;2022-10-03T11:25:15;15.10;73.80
46752;DHT22;32497;48.936;9.270;2022-10-03T11:31:17;15.60;67.00
46752;DHT22;32497;48.936;9.270;2022-10-03T11:36:51;16.10;67.40
46752;DHT22;32497;48.936;9.270;2022-10-03T11:42:05;16.70;64.50
46752;DHT22;32497;48.936;9.270;2022-10-03T11:47:38;16.20;62.10
46752;DHT22;32497;48.936;9.270;2022-10-03T11:52:50;16.50;59.80
46752;DHT22;32497;48.936;9.270;2022-10-03T11:58:09;16.20;63.00
46752;DHT22;32497;48.936;9.270;2022-10-03T12:03:19;16.30;60.70
46752;DHT22;32497;48.936;9.270;2022-10-03T12:08:29;15.80;64.40
46752;DHT22;32497;48.936;9.270;2022-10-03T12:13:43;15.20;67.00
46752;DHT22;32497;48.936;9.270;2022-10-03T12:18:53;15.30;65.00
46752;DHT22;32497;48.936;9.270;2022-10-03T12:24:04;16.90;64.60
46752;DHT22;32497;48.936;9.270;2022-10-03T12:29:16;17.60;60.00
46752;DHT22;32497;48.936;9.270;2022-10-03T12:34:34;18.10;56.10
46752;DHT22;32497;48.936;9.270;2022-10-03T12:39:43;18.00;57.80
46752;DHT22;32497;48.936;9.270;2022-10-03T12:44:55;18.20;56.50
46752;DHT22;32497;48.936;9.270;2022-10-03T12:50:04;18.60;58.30
46752;DHT22;32497;48.936;9.270;2022-10-03T12:55:20;19.40;49.30
46752;DHT22;32497;48.936;9.270;2022-10-03T13:00:27;20.10;53.70
46752;DHT22;32497;48.936;9.270;2022-10-03T13:05:46;21.00;45.50
46752;DHT22;32497;48.936;9.270;2022-10-03T13:10:55;22.00;45.50
46752;DHT22;32497;48.936;9.270;2022-10-03T13:16:15;21.60;48.40
46752;DHT22;32497;48.936;9.270;2022-10-03T13:21:22;21.20;44.70
46752;DHT22;32497;48.936;9.270;2022-10-03T13:26:44;21.60;51.30
46752;DHT22;32497;48.936;9.270;2022-10-03T13:32:03;20.60;51.20
46752;DHT22;32497;48.936;9.270;2022-10-03T13:37:11;20.10;54.50
46752;DHT22;32497;48.936;9.270;2022-10-03T13:42:17;19.20;56.80
46752;DHT22;32497;48.936;9.270;2022-10-03T13:47:40;19.00;55.90
46752;DHT22;32497;48.936;9.270;2022-10-03T13:52:44;20.10;56.70
46752;DHT22;32497;48.936;9.270;2022-10-03T13:58:01;20.60;55.20
46752;DHT22;32497;48.936;9.270;2022-10-03T14:03:18;19.10;57.20
46752;DHT22;32497;48.936;9.270;2022-10-03T14:08:30;17.80;62.10
46752;DHT22;32497;48.936;9.270;2022-10-03T14:13:42;17.10;63.60
46752;DHT22;32497;48.936;9.270;2022-10-03T14:18:51;16.70;65.60
46752;DHT22;32497;48.936;9.270;2022-10-03T14:24:01;16.60;64.70
46752;DHT22;32497;48.936;9.270;2022-10-03T14:29:09;16.40;65.90
46752;DHT22;32497;48.936;9.270;2022-10-03T14:34:34;16.90;68.60
46752;DHT22;32497;48.936;9.270;2022-10-03T14:39:41;17.20;66.30
46752;DHT22;32497;48.936;9.270;2022-10-03T14:44:47;17.80;61.60
46752;DHT22;32497;48.936;9.270;2022-10-03T14:49:56;18.30;62.10
46752;DHT22;32497;48.936;9.270;2022-10-03T14:55:17;18.10;61.40
46752;DHT22;32497;48.936;9.270;2022-10-03T15:00:24;18.50;56.50
46752;DHT22;32497;48.936;9.270;2022-10-03T15:05:34;19.00;58.00
46752;DHT22;32497;48.936;9.270;2022-10-03T15:10:35;18.60;51.50
46752;DHT22;32497;48.936;9.270;2022-10-03T15:15:38;17.70;55.40
46752;DHT22;32497;48.936;9.270;2022-10-03T15:20:43;17.20;56.10
46752;DHT22;32497;48.936;9.270;2022-10-03T15:25:46;16.70;61.30
46752;DHT22;32497;48.936;9.270;2022-10-03T15:30:50;16.60;63.70
46752;DHT22;32497;48.936;9.270;2022-10-03T15:35:55;16.80;58.70
46752;DHT22;32497;48.936;9.270;2022-10-03T15:41:06;16.90;60.80
46752;DHT22;32497;48.936;9.270;2022-10-03T15:46:13;16.60;57.50
46752;DHT22;32497;48.936;9.270;2022-10-03T15:51:18;16.50;60.80
46752;DHT22;32497;48.936;9.270;2022-10-03T15:56:24;16.20;60.50
46752;DHT22;32497;48.936;9.270;2022-10-03T16:01:30;15.70;64.30
46752;DHT22;32497;48.936;9.270;2022-10-03T16:06:42;15.70;63.60
46752;DHT22;32497;48.936;9.270;2022-10-03T16:11:52;15.70;66.80
46752;DHT22;32497;48.936;9.270;2022-10-03T16:16:58;15.60;67.00
46752;DHT22;32497;48.936;9.270;2022-10-03T16:22:12;15.30;67.80
46752;DHT22;32497;48.936;9.270;2022-10-03T16:27:19;15.10;68.40
46752;DHT22;32497;48.936;9.270;2022-10-03T16:32:23;14.80;68.40
46752;DHT22;32497;48.936;9.270;2022-10-03T16:37:27;14.70;71.50
46752;DHT22;32497;48.936;9.270;2022-10-03T16:42:37;14.40;71.90
46752;DHT22;32497;48.936;9.270;2022-10-03T16:47:39;14.20;71.80
46752;DHT22;32497;48.936;9.270;2022-10-03T16:52:46;14.10;74.00
46752;DHT22;32497;48.936;9.270;2022-10-03T16:57:51;13.90;74.00
46752;DHT22;32497;48.936;9.270;2022-10-03T17:02:56;13.70;76.40
46752;DHT22;32497;48.936;9.270;2022-10-03T17:07:59;13.60;76.10
46752;DHT22;32497;48.936;9.270;2022-10-03T17:13:04;13.40;76.70
46752;DHT22;32497;48.936;9.270;2022-10-03T17:18:17;13.30;78.50
46752;DHT22;32497;48.936;9.270;2022-10-03T17:23:26;13.10;78.70
46752;DHT22;32497;48.936;9.270;2022-10-03T17:28:36;12.80;79.20
46752;DHT22;32497;48.936;9.270;2022-10-03T17:33:41;12.70;79.00
46752;DHT22;32497;48.936;9.270;2022-10-03T17:38:51;12.50;79.40
46752;DHT22;32497;48.936;9.270;2022-10-03T17:43:59;12.50;79.40
46752;DHT22;32497;48.936;9.270;2022-10-03T17:49:06;12.40;79.90
46752;DHT22;32497;48.936;9.270;2022-10-03T17:54:12;12.10;80.60
46752;DHT22;32497;48.936;9.270;2022-10-03T17:59:20;11.90;81.40
46752;DHT22;32497;48.936;9.270;2022-10-03T18:04:28;11.80;82.70
46752;DHT22;32497;48.936;9.270;2022-10-03T18:09:33;11.60;81.00
46752;DHT22;32497;48.936;9.270;2022-10-03T18:14:41;11.50;82.30
46752;DHT22;32497;48.936;9.270;2022-10-03T18:19:55;11.40;81.90
46752;DHT22;32497;48.936;9.270;2022-10-03T18:25:08;11.40;81.70
46752;DHT22;32497;48.936;9.270;2022-10-03T18:30:14;11.30;82.10
46752;DHT22;32497;48.936;9.270;2022-10-03T18:35:19;11.10;81.60
46752;DHT22;32497;48.936;9.270;2022-10-03T18:40:25;11.10;83.20
46752;DHT22;32497;48.936;9.270;2022-10-03T18:45:31;11.00;83.80
46752;DHT22;32497;48.936;9.270;2022-10-03T18:50:43;10.80;84.40
46752;DHT22;32497;48.936;9.270;2022-10-03T18:55:55;10.70;85.50
46752;DHT22;32497;48.936;9.270;2022-10-03T19:01:00;10.60;87.00
46752;DHT22;32497;48.936;9.270;2022-10-03T19:06:05;10.60;87.70
46752;DHT22;32497;48.936;9.270;2022-10-03T19:11:16;10.60;88.50
46752;DHT22;32497;48.936;9.270;2022-10-03T19:16:30;10.60;88.60
46752;DHT22;32497;48.936;9.270;2022-10-03T19:21:35;10.60;88.40
46752;DHT22;32497;48.936;9.270;2022-10-03T19:26:43;10.60;88.80
46752;DHT22;32497;48.936;9.270;2022-10-03T19:31:54;10.50;88.40
46752;DHT22;32497;48.936;9.270;2022-10-03T19:36:58;10.40;87.90
46752;DHT22;32497;48.936;9.270;2022-10-03T19:42:24;10.20;88.40
46752;DHT22;32497;48.936;9.270;2022-10-03T19:47:29;10.00;88.50
46752;DHT22;32497;48.936;9.270;2022-10-03T19:52:32;9.90;89.60
46752;DHT22;32497;48.936;9.270;2022-10-03T19:57:44;9.80;88.90
46752;DHT22;32497;48.936;9.270;2022-10-03T20:02:55;9.70;89.50
46752;DHT22;32497;48.936;9.270;2022-10-03T20:08:00;9.60;89.30
46752;DHT22;32497;48.936;9.270;2022-10-03T20:13:06;9.40;90.10
46752;DHT22;32497;48.936;9.270;2022-10-03T20:18:13;9.30;90.20
46752;DHT22;32497;48.936;9.270;2022-10-03T20:23:17;9.30;90.00
46752;DHT22;32497;48.936;9.270;2022-10-03T20:28:22;9.20;89.80
46752;DHT22;32497;48.936;9.270;2022-10-03T20:33:28;9.00;90.60
46752;DHT22;32497;48.936;9.270;2022-10-03T20:38:43;9.00;91.00
46752;DHT22;32497;48.936;9.270;2022-10-03T20:43:55;8.90;91.00
46752;DHT22;32497;48.936;9.270;2022-10-03T20:49:14;8.90;91.10
46752;DHT22;32497;48.936;9.270;2022-10-03T20:54:23;8.80;91.10
46752;DHT22;32497;48.936;9.270;2022-10-03T20:59:36;8.80;91.00
46752;DHT22;32497;48.936;9.270;2022-10-03T21:04:49;8.70;91.20
46752;DHT22;32497;48.936;9.270;2022-10-03T21:09:56;8.80;91.00
46752;DHT22;32497;48.936;9.270;2022-10-03T21:15:05;8.70;91.30
46752;DHT22;32497;48.936;9.270;2022-10-03T21:20:14;8.60;91.30
46752;DHT22;32497;48.936;9.270;2022-10-03T21:25:19;8.60;91.30
46752;DHT22;32497;48.936;9.270;2022-10-03T21:30:39;8.50;91.20
46752;DHT22;32497;48.936;9.270;2022-10-03T21:35:44;8.50;91.30
46752;DHT22;32497;48.936;9.270;2022-10-03T21:41:05;8.40;91.30
46752;DHT22;32497;48.936;9.270;2022-10-03T21:46:16;8.30;91.50
46752;DHT22;32497;48.936;9.270;2022-10-03T21:51:25;8.20;91.80
46752;DHT22;32497;48.936;9.270;2022-10-03T21:56:37;8.20;91.80
46752;DHT22;32497;48.936;9.270;2022-10-03T22:01:46;8.20;91.80
46752;DHT22;32497;48.936;9.270;2022-10-03T22:06:54;8.20;91.90
46752;DHT22;32497;48.936;9.270;2022-10-03T22:11:59;8.20;91.60
46752;DHT22;32497;48.936;9.270;2022-10-03T22:17:07;8.10;91.50
46752;DHT22;32497;48.936;9.270;2022-10-03T22:22:18;8.00;91.80
46752;DHT22;32497;48.936;9.270;2022-10-03T22:27:30;7.90;91.60
46752;DHT22;32497;48.936;9.270;2022-10-03T22:32:39;7.80;91.70
46752;DHT22;32497;48.936;9.270;2022-10-03T22:37:41;7.80;91.70
46752;DHT22;32497;48.936;9.270;2022-10-03T22:42:45;8.10;91.30
46752;DHT22;32497;48.936;9.270;2022-10-03T22:47:53;8.10;90.90
46752;DHT22;32497;48.936;9.270;2022-10-03T22:52:57;8.10;90.40
46752;DHT22;32497;48.936;9.270;2022-10-03T22:58:00;7.80;90.60
46752;DHT22;32497;48.936;9.270;2022-10-03T23:03:07;7.70;91.10
46752;DHT22;32497;48.936;9.270;2022-10-03T23:08:17;7.60;91.40
46752;DHT22;32497;48.936;9.270;2022-10-03T23:13:26;7.40;91.40
46752;DHT22;32497;48.936;9.270;2022-10-03T23:18:51;7.30;91.70
46752;DHT22;32497;48.936;9.270;2022-10-03T23:23:59;7.20;91.80
46752;DHT22;32497;48.936;9.270;2022-10-03T23:29:05;7.20;92.10
46752;DHT22;32497;48.936;9.270;2022-10-03T23:34:08;7.20;92.10
46752;DHT22;32497;48.936;9.270;2022-10-03T23:39:30;7.20;92.20
46752;DHT22;32497;48.936;9.270;2022-10-03T23:44:43;7.20;92.20
46752;DHT22;32497;48.936;9.270;2022-10-03T23:49:47;7.20;91.70
46752;DHT22;32497;48.936;9.270;2022-10-03T23:54:51;7.10;91.50
46752;DHT22;32497;48.936;9.270;2022-10-03T23:59:54;7.10;91.20
